Staunton, Illinois
Current Conditions -  °F | °C
As of 2:35 AM on Friday 26 Dec 2014 (Local Time) from K3LF Reporting Station
Clear Clear  
Wind Chill: 30°   Ceiling: Unl
Heat Index: 38°   Visibility: 10mi
Dew Point: 33°   Wind: 12mph
Humidity: 81%   Direction: 150°SSE
Pressure: 30.06"   Gusts: NA
Location:  39.01°N, 89.79°W
Report Text: K3LF 260835Z AUTO 15010KT 10SM CLR 03/00 A3006 RMK AO2 T00330004
Loading
Personal Weather Stations






























Interactive Weather Map New forecast layout! Learn more

10-Day Weather Forecast

Advertisements
Track Severe Weather on mobile